sensor_id;sensor_type;location;lat;lon;timestamp;P1;durP1;ratioP1;P2;durP2;ratioP2
59028;SDS011;45919;51.420;5.454;2022-07-12T00:00:08;8.82;;;6.85;;
59028;SDS011;45919;51.420;5.454;2022-07-12T00:01:10;10.95;;;7.45;;
59028;SDS011;45919;51.420;5.454;2022-07-12T00:02:12;8.80;;;7.47;;
59028;SDS011;45919;51.420;5.454;2022-07-12T00:03:13;7.65;;;6.95;;
59028;SDS011;45919;51.420;5.454;2022-07-12T00:04:15;9.68;;;7.18;;
59028;SDS011;45919;51.420;5.454;2022-07-12T00:05:17;9.35;;;7.10;;
59028;SDS011;45919;51.420;5.454;2022-07-12T00:06:18;8.65;;;7.68;;
59028;SDS011;45919;51.420;5.454;2022-07-12T00:07:20;8.13;;;7.15;;
59028;SDS011;45919;51.420;5.454;2022-07-12T00:08:21;8.73;;;7.22;;
59028;SDS011;45919;51.420;5.454;2022-07-12T00:09:24;8.23;;;7.10;;
59028;SDS011;45919;51.420;5.454;2022-07-12T00:10:25;8.13;;;7.30;;
59028;SDS011;45919;51.420;5.454;2022-07-12T00:11:27;8.18;;;7.35;;
59028;SDS011;45919;51.420;5.454;2022-07-12T00:12:28;9.80;;;7.88;;
59028;SDS011;45919;51.420;5.454;2022-07-12T00:13:30;9.27;;;7.20;;
59028;SDS011;45919;51.420;5.454;2022-07-12T00:14:32;8.73;;;7.25;;
59028;SDS011;45919;51.420;5.454;2022-07-12T00:15:33;9.98;;;8.00;;
59028;SDS011;45919;51.420;5.454;2022-07-12T00:16:35;8.98;;;7.22;;
59028;SDS011;45919;51.420;5.454;2022-07-12T00:17:37;9.93;;;7.65;;
59028;SDS011;45919;51.420;5.454;2022-07-12T00:18:39;9.10;;;7.90;;
59028;SDS011;45919;51.420;5.454;2022-07-12T00:19:42;7.90;;;7.10;;
59028;SDS011;45919;51.420;5.454;2022-07-12T00:20:44;9.73;;;7.90;;
59028;SDS011;45919;51.420;5.454;2022-07-12T00:21:46;8.48;;;7.35;;
59028;SDS011;45919;51.420;5.454;2022-07-12T00:22:48;9.23;;;7.38;;
59028;SDS011;45919;51.420;5.454;2022-07-12T00:23:49;8.65;;;7.75;;
59028;SDS011;45919;51.420;5.454;2022-07-12T00:24:51;9.07;;;7.72;;
59028;SDS011;45919;51.420;5.454;2022-07-12T00:25:52;11.85;;;8.90;;
59028;SDS011;45919;51.420;5.454;2022-07-12T00:26:54;10.27;;;7.97;;
59028;SDS011;45919;51.420;5.454;2022-07-12T00:27:56;9.40;;;7.95;;
59028;SDS011;45919;51.420;5.454;2022-07-12T00:28:57;9.25;;;8.27;;
59028;SDS011;45919;51.420;5.454;2022-07-12T00:29:59;9.00;;;8.07;;
59028;SDS011;45919;51.420;5.454;2022-07-12T00:31:01;11.32;;;8.38;;
59028;SDS011;45919;51.420;5.454;2022-07-12T00:32:02;10.38;;;8.23;;
59028;SDS011;45919;51.420;5.454;2022-07-12T00:33:04;11.13;;;8.57;;
59028;SDS011;45919;51.420;5.454;2022-07-12T00:34:06;9.40;;;7.95;;
59028;SDS011;45919;51.420;5.454;2022-07-12T00:35:07;9.55;;;8.10;;
59028;SDS011;45919;51.420;5.454;2022-07-12T00:36:09;9.40;;;8.38;;
59028;SDS011;45919;51.420;5.454;2022-07-12T00:37:10;11.23;;;8.18;;
59028;SDS011;45919;51.420;5.454;2022-07-12T00:38:12;10.05;;;8.80;;
59028;SDS011;45919;51.420;5.454;2022-07-12T00:39:14;11.63;;;8.63;;
59028;SDS011;45919;51.420;5.454;2022-07-12T00:40:15;9.30;;;8.23;;
59028;SDS011;45919;51.420;5.454;2022-07-12T00:41:17;9.98;;;8.98;;
59028;SDS011;45919;51.420;5.454;2022-07-12T00:42:19;11.77;;;9.50;;
59028;SDS011;45919;51.420;5.454;2022-07-12T00:43:21;10.68;;;8.73;;
59028;SDS011;45919;51.420;5.454;2022-07-12T00:44:22;12.05;;;9.25;;
59028;SDS011;45919;51.420;5.454;2022-07-12T00:45:24;10.35;;;9.23;;
59028;SDS011;45919;51.420;5.454;2022-07-12T00:46:26;9.80;;;8.80;;
59028;SDS011;45919;51.420;5.454;2022-07-12T00:47:31;12.40;;;9.15;;
59028;SDS011;45919;51.420;5.454;2022-07-12T00:48:37;10.40;;;8.82;;
59028;SDS011;45919;51.420;5.454;2022-07-12T00:49:39;12.60;;;8.75;;
59028;SDS011;45919;51.420;5.454;2022-07-12T00:50:41;12.50;;;9.38;;
59028;SDS011;45919;51.420;5.454;2022-07-12T00:51:43;13.25;;;9.38;;
59028;SDS011;45919;51.420;5.454;2022-07-12T00:52:46;10.57;;;9.07;;
59028;SDS011;45919;51.420;5.454;2022-07-12T00:53:49;10.70;;;9.20;;
59028;SDS011;45919;51.420;5.454;2022-07-12T00:54:52;9.93;;;8.93;;
59028;SDS011;45919;51.420;5.454;2022-07-12T00:55:55;12.30;;;9.00;;
59028;SDS011;45919;51.420;5.454;2022-07-12T00:56:58;13.05;;;8.80;;
59028;SDS011;45919;51.420;5.454;2022-07-12T00:57:59;10.18;;;8.73;;
59028;SDS011;45919;51.420;5.454;2022-07-12T00:59:01;12.40;;;9.15;;
59028;SDS011;45919;51.420;5.454;2022-07-12T01:00:03;10.05;;;8.95;;
59028;SDS011;45919;51.420;5.454;2022-07-12T01:01:08;10.43;;;9.05;;
59028;SDS011;45919;51.420;5.454;2022-07-12T01:02:10;10.15;;;8.93;;
59028;SDS011;45919;51.420;5.454;2022-07-12T01:03:12;11.25;;;9.57;;
59028;SDS011;45919;51.420;5.454;2022-07-12T01:04:13;10.10;;;8.63;;
59028;SDS011;45919;51.420;5.454;2022-07-12T01:05:19;11.02;;;9.23;;
59028;SDS011;45919;51.420;5.454;2022-07-12T01:06:21;11.48;;;8.98;;
59028;SDS011;45919;51.420;5.454;2022-07-12T01:07:23;12.55;;;9.70;;
59028;SDS011;45919;51.420;5.454;2022-07-12T01:08:26;12.70;;;9.43;;
59028;SDS011;45919;51.420;5.454;2022-07-12T01:09:29;9.63;;;8.60;;
59028;SDS011;45919;51.420;5.454;2022-07-12T01:10:30;10.57;;;8.68;;
59028;SDS011;45919;51.420;5.454;2022-07-12T01:11:34;8.80;;;7.90;;
59028;SDS011;45919;51.420;5.454;2022-07-12T01:12:36;9.20;;;8.30;;
59028;SDS011;45919;51.420;5.454;2022-07-12T01:13:38;9.18;;;8.23;;
59028;SDS011;45919;51.420;5.454;2022-07-12T01:14:39;10.07;;;8.48;;
59028;SDS011;45919;51.420;5.454;2022-07-12T01:15:42;10.48;;;8.57;;
59028;SDS011;45919;51.420;5.454;2022-07-12T01:16:44;9.23;;;8.20;;
59028;SDS011;45919;51.420;5.454;2022-07-12T01:17:46;10.93;;;8.82;;
59028;SDS011;45919;51.420;5.454;2022-07-12T01:18:52;10.10;;;8.32;;
59028;SDS011;45919;51.420;5.454;2022-07-12T01:19:55;9.68;;;8.52;;
59028;SDS011;45919;51.420;5.454;2022-07-12T01:21:00;10.18;;;8.93;;
59028;SDS011;45919;51.420;5.454;2022-07-12T01:22:06;9.95;;;8.80;;
59028;SDS011;45919;51.420;5.454;2022-07-12T01:23:11;12.70;;;9.00;;
59028;SDS011;45919;51.420;5.454;2022-07-12T01:24:14;11.70;;;8.88;;
59028;SDS011;45919;51.420;5.454;2022-07-12T01:25:16;9.70;;;8.75;;
59028;SDS011;45919;51.420;5.454;2022-07-12T01:26:18;9.70;;;8.52;;
59028;SDS011;45919;51.420;5.454;2022-07-12T01:27:20;9.93;;;8.85;;
59028;SDS011;45919;51.420;5.454;2022-07-12T01:28:21;11.85;;;9.43;;
59028;SDS011;45919;51.420;5.454;2022-07-12T01:29:23;10.15;;;8.55;;
59028;SDS011;45919;51.420;5.454;2022-07-12T01:30:25;10.60;;;8.25;;
59028;SDS011;45919;51.420;5.454;2022-07-12T01:31:26;9.43;;;8.23;;
59028;SDS011;45919;51.420;5.454;2022-07-12T01:32:29;9.55;;;7.68;;
59028;SDS011;45919;51.420;5.454;2022-07-12T01:33:31;8.48;;;7.57;;
59028;SDS011;45919;51.420;5.454;2022-07-12T01:34:35;8.73;;;7.82;;
59028;SDS011;45919;51.420;5.454;2022-07-12T01:35:37;8.77;;;7.45;;
59028;SDS011;45919;51.420;5.454;2022-07-12T01:36:40;10.65;;;7.43;;
59028;SDS011;45919;51.420;5.454;2022-07-12T01:37:43;9.18;;;7.93;;
59028;SDS011;45919;51.420;5.454;2022-07-12T01:38:45;8.93;;;7.55;;
59028;SDS011;45919;51.420;5.454;2022-07-12T01:39:47;9.32;;;7.40;;
59028;SDS011;45919;51.420;5.454;2022-07-12T01:40:50;7.88;;;7.07;;
59028;SDS011;45919;51.420;5.454;2022-07-12T01:41:52;10.25;;;7.93;;
59028;SDS011;45919;51.420;5.454;2022-07-12T01:42:54;10.52;;;8.20;;
59028;SDS011;45919;51.420;5.454;2022-07-12T01:43:56;8.98;;;7.90;;
59028;SDS011;45919;51.420;5.454;2022-07-12T01:44:58;9.63;;;7.85;;
59028;SDS011;45919;51.420;5.454;2022-07-12T01:46:00;10.15;;;8.32;;
59028;SDS011;45919;51.420;5.454;2022-07-12T01:47:02;10.93;;;8.05;;
59028;SDS011;45919;51.420;5.454;2022-07-12T01:48:04;9.70;;;7.82;;
59028;SDS011;45919;51.420;5.454;2022-07-12T01:49:05;10.73;;;7.93;;
59028;SDS011;45919;51.420;5.454;2022-07-12T01:50:08;9.75;;;8.27;;
59028;SDS011;45919;51.420;5.454;2022-07-12T01:51:11;10.57;;;8.45;;
59028;SDS011;45919;51.420;5.454;2022-07-12T01:52:12;9.05;;;8.07;;
59028;SDS011;45919;51.420;5.454;2022-07-12T01:53:15;10.27;;;8.00;;
59028;SDS011;45919;51.420;5.454;2022-07-12T01:54:17;9.52;;;8.52;;
59028;SDS011;45919;51.420;5.454;2022-07-12T01:55:19;8.75;;;7.57;;
59028;SDS011;45919;51.420;5.454;2022-07-12T01:56:21;8.90;;;7.60;;
59028;SDS011;45919;51.420;5.454;2022-07-12T01:57:23;8.55;;;7.53;;
59028;SDS011;45919;51.420;5.454;2022-07-12T01:58:25;8.90;;;7.63;;
59028;SDS011;45919;51.420;5.454;2022-07-12T01:59:26;8.18;;;6.93;;
59028;SDS011;45919;51.420;5.454;2022-07-12T02:00:29;9.27;;;7.82;;
59028;SDS011;45919;51.420;5.454;2022-07-12T02:01:32;10.73;;;8.02;;
59028;SDS011;45919;51.420;5.454;2022-07-12T02:02:34;9.40;;;7.82;;
59028;SDS011;45919;51.420;5.454;2022-07-12T02:03:37;10.25;;;7.85;;
59028;SDS011;45919;51.420;5.454;2022-07-12T02:04:39;9.07;;;8.02;;
59028;SDS011;45919;51.420;5.454;2022-07-12T02:05:40;9.27;;;8.00;;
59028;SDS011;45919;51.420;5.454;2022-07-12T02:06:46;9.98;;;8.93;;
59028;SDS011;45919;51.420;5.454;2022-07-12T02:07:48;8.85;;;7.95;;
59028;SDS011;45919;51.420;5.454;2022-07-12T02:08:50;10.50;;;8.80;;
59028;SDS011;45919;51.420;5.454;2022-07-12T02:09:52;9.05;;;7.78;;
59028;SDS011;45919;51.420;5.454;2022-07-12T02:10:54;11.98;;;8.52;;
59028;SDS011;45919;51.420;5.454;2022-07-12T02:11:56;10.02;;;7.75;;
59028;SDS011;45919;51.420;5.454;2022-07-12T02:12:58;12.77;;;9.00;;
59028;SDS011;45919;51.420;5.454;2022-07-12T02:14:03;8.98;;;8.10;;
59028;SDS011;45919;51.420;5.454;2022-07-12T02:15:07;9.30;;;8.45;;
59028;SDS011;45919;51.420;5.454;2022-07-12T02:16:09;9.52;;;8.50;;
59028;SDS011;45919;51.420;5.454;2022-07-12T02:17:11;9.40;;;8.30;;
59028;SDS011;45919;51.420;5.454;2022-07-12T02:18:13;11.65;;;9.10;;
59028;SDS011;45919;51.420;5.454;2022-07-12T02:19:14;11.25;;;9.18;;
59028;SDS011;45919;51.420;5.454;2022-07-12T02:20:16;10.45;;;8.88;;
59028;SDS011;45919;51.420;5.454;2022-07-12T02:21:18;11.18;;;9.32;;
59028;SDS011;45919;51.420;5.454;2022-07-12T02:22:19;10.15;;;9.07;;
59028;SDS011;45919;51.420;5.454;2022-07-12T02:23:21;10.82;;;9.38;;
59028;SDS011;45919;51.420;5.454;2022-07-12T02:24:22;12.50;;;9.23;;
59028;SDS011;45919;51.420;5.454;2022-07-12T02:25:24;11.73;;;9.82;;
59028;SDS011;45919;51.420;5.454;2022-07-12T02:26:26;12.85;;;9.80;;
59028;SDS011;45919;51.420;5.454;2022-07-12T02:27:28;12.15;;;9.32;;
59028;SDS011;45919;51.420;5.454;2022-07-12T02:28:29;14.25;;;9.50;;
59028;SDS011;45919;51.420;5.454;2022-07-12T02:29:32;10.98;;;9.35;;
59028;SDS011;45919;51.420;5.454;2022-07-12T02:30:34;11.48;;;9.10;;
59028;SDS011;45919;51.420;5.454;2022-07-12T02:31:36;14.38;;;9.63;;
59028;SDS011;45919;51.420;5.454;2022-07-12T02:32:37;11.43;;;10.07;;
59028;SDS011;45919;51.420;5.454;2022-07-12T02:33:39;11.75;;;10.07;;
59028;SDS011;45919;51.420;5.454;2022-07-12T02:34:40;12.80;;;9.95;;
59028;SDS011;45919;51.420;5.454;2022-07-12T02:35:42;10.77;;;9.02;;
59028;SDS011;45919;51.420;5.454;2022-07-12T02:36:44;11.05;;;9.75;;
59028;SDS011;45919;51.420;5.454;2022-07-12T02:37:46;11.00;;;9.00;;
59028;SDS011;45919;51.420;5.454;2022-07-12T02:38:47;12.82;;;10.20;;
59028;SDS011;45919;51.420;5.454;2022-07-12T02:39:49;11.40;;;9.48;;
59028;SDS011;45919;51.420;5.454;2022-07-12T02:40:51;12.35;;;10.15;;
59028;SDS011;45919;51.420;5.454;2022-07-12T02:41:55;12.30;;;10.02;;
59028;SDS011;45919;51.420;5.454;2022-07-12T02:42:57;13.20;;;9.75;;
59028;SDS011;45919;51.420;5.454;2022-07-12T02:43:59;10.55;;;9.43;;
59028;SDS011;45919;51.420;5.454;2022-07-12T02:45:01;12.20;;;9.63;;
59028;SDS011;45919;51.420;5.454;2022-07-12T02:46:04;10.98;;;9.80;;
59028;SDS011;45919;51.420;5.454;2022-07-12T02:47:06;10.48;;;9.18;;
59028;SDS011;45919;51.420;5.454;2022-07-12T02:48:07;12.68;;;9.70;;
59028;SDS011;45919;51.420;5.454;2022-07-12T02:49:11;10.18;;;9.10;;
59028;SDS011;45919;51.420;5.454;2022-07-12T02:50:13;11.75;;;9.50;;
59028;SDS011;45919;51.420;5.454;2022-07-12T02:51:14;10.00;;;9.00;;
59028;SDS011;45919;51.420;5.454;2022-07-12T02:52:16;10.88;;;8.98;;
59028;SDS011;45919;51.420;5.454;2022-07-12T02:53:18;10.20;;;9.20;;
59028;SDS011;45919;51.420;5.454;2022-07-12T02:54:19;11.93;;;9.02;;
59028;SDS011;45919;51.420;5.454;2022-07-12T02:55:21;12.57;;;10.15;;
59028;SDS011;45919;51.420;5.454;2022-07-12T02:56:22;11.20;;;9.55;;
59028;SDS011;45919;51.420;5.454;2022-07-12T02:57:24;11.82;;;10.57;;
59028;SDS011;45919;51.420;5.454;2022-07-12T02:58:26;11.10;;;9.98;;
59028;SDS011;45919;51.420;5.454;2022-07-12T02:59:28;12.25;;;9.73;;
59028;SDS011;45919;51.420;5.454;2022-07-12T03:00:29;10.73;;;9.63;;
59028;SDS011;45919;51.420;5.454;2022-07-12T03:01:31;12.45;;;9.38;;
59028;SDS011;45919;51.420;5.454;2022-07-12T03:02:32;14.77;;;10.02;;
59028;SDS011;45919;51.420;5.454;2022-07-12T03:03:34;12.15;;;9.70;;
59028;SDS011;45919;51.420;5.454;2022-07-12T03:04:36;11.65;;;10.13;;
59028;SDS011;45919;51.420;5.454;2022-07-12T03:05:38;11.68;;;10.48;;
59028;SDS011;45919;51.420;5.454;2022-07-12T03:06:40;14.82;;;10.25;;
59028;SDS011;45919;51.420;5.454;2022-07-12T03:07:42;11.77;;;10.55;;
59028;SDS011;45919;51.420;5.454;2022-07-12T03:08:44;12.18;;;10.38;;
59028;SDS011;45919;51.420;5.454;2022-07-12T03:09:45;12.63;;;10.10;;
59028;SDS011;45919;51.420;5.454;2022-07-12T03:10:47;11.13;;;9.57;;
59028;SDS011;45919;51.420;5.454;2022-07-12T03:11:49;10.90;;;9.38;;
59028;SDS011;45919;51.420;5.454;2022-07-12T03:12:50;11.52;;;9.93;;
59028;SDS011;45919;51.420;5.454;2022-07-12T03:13:52;12.85;;;10.23;;
59028;SDS011;45919;51.420;5.454;2022-07-12T03:14:54;11.82;;;10.02;;
59028;SDS011;45919;51.420;5.454;2022-07-12T03:15:55;12.27;;;10.20;;
59028;SDS011;45919;51.420;5.454;2022-07-12T03:16:57;11.27;;;10.02;;
59028;SDS011;45919;51.420;5.454;2022-07-12T03:17:59;14.57;;;11.00;;
59028;SDS011;45919;51.420;5.454;2022-07-12T03:19:02;14.38;;;11.40;;
59028;SDS011;45919;51.420;5.454;2022-07-12T03:20:04;12.38;;;11.00;;
59028;SDS011;45919;51.420;5.454;2022-07-12T03:21:12;12.43;;;10.82;;
59028;SDS011;45919;51.420;5.454;2022-07-12T03:22:14;14.10;;;11.20;;
59028;SDS011;45919;51.420;5.454;2022-07-12T03:23:15;12.80;;;10.52;;
59028;SDS011;45919;51.420;5.454;2022-07-12T03:24:17;14.70;;;11.23;;
59028;SDS011;45919;51.420;5.454;2022-07-12T03:25:19;15.32;;;10.85;;
59028;SDS011;45919;51.420;5.454;2022-07-12T03:26:23;15.55;;;11.63;;
59028;SDS011;45919;51.420;5.454;2022-07-12T03:27:25;12.35;;;11.05;;
59028;SDS011;45919;51.420;5.454;2022-07-12T03:28:26;12.25;;;10.88;;
59028;SDS011;45919;51.420;5.454;2022-07-12T03:29:28;14.00;;;11.38;;
59028;SDS011;45919;51.420;5.454;2022-07-12T03:30:30;15.38;;;11.25;;
59028;SDS011;45919;51.420;5.454;2022-07-12T03:31:31;12.40;;;11.10;;
59028;SDS011;45919;51.420;5.454;2022-07-12T03:32:33;14.50;;;11.48;;
59028;SDS011;45919;51.420;5.454;2022-07-12T03:33:35;14.20;;;12.02;;
59028;SDS011;45919;51.420;5.454;2022-07-12T03:34:37;17.17;;;11.77;;
59028;SDS011;45919;51.420;5.454;2022-07-12T03:35:38;14.05;;;11.45;;
59028;SDS011;45919;51.420;5.454;2022-07-12T03:36:40;13.75;;;12.10;;
59028;SDS011;45919;51.420;5.454;2022-07-12T03:37:48;15.27;;;11.93;;
59028;SDS011;45919;51.420;5.454;2022-07-12T03:38:51;13.93;;;11.82;;
59028;SDS011;45919;51.420;5.454;2022-07-12T03:39:52;16.17;;;12.05;;
59028;SDS011;45919;51.420;5.454;2022-07-12T03:40:54;15.07;;;12.13;;
59028;SDS011;45919;51.420;5.454;2022-07-12T03:41:56;14.63;;;11.40;;
59028;SDS011;45919;51.420;5.454;2022-07-12T03:42:58;13.57;;;11.77;;
59028;SDS011;45919;51.420;5.454;2022-07-12T03:43:59;14.85;;;11.38;;
59028;SDS011;45919;51.420;5.454;2022-07-12T03:45:01;14.55;;;11.07;;
59028;SDS011;45919;51.420;5.454;2022-07-12T03:46:03;13.63;;;11.80;;
59028;SDS011;45919;51.420;5.454;2022-07-12T03:47:05;15.57;;;12.18;;
59028;SDS011;45919;51.420;5.454;2022-07-12T03:48:07;14.65;;;11.52;;
59028;SDS011;45919;51.420;5.454;2022-07-12T03:49:09;14.65;;;12.40;;
59028;SDS011;45919;51.420;5.454;2022-07-12T03:50:11;15.38;;;12.63;;
59028;SDS011;45919;51.420;5.454;2022-07-12T03:51:14;14.63;;;12.82;;
59028;SDS011;45919;51.420;5.454;2022-07-12T03:52:15;16.92;;;12.95;;
59028;SDS011;45919;51.420;5.454;2022-07-12T03:53:17;14.68;;;12.90;;
59028;SDS011;45919;51.420;5.454;2022-07-12T03:54:19;16.70;;;12.93;;
59028;SDS011;45919;51.420;5.454;2022-07-12T03:55:20;17.45;;;13.85;;
59028;SDS011;45919;51.420;5.454;2022-07-12T03:56:22;17.77;;;14.23;;
59028;SDS011;45919;51.420;5.454;2022-07-12T03:57:42;16.55;;;13.57;;
59028;SDS011;45919;51.420;5.454;2022-07-12T03:58:44;18.73;;;13.75;;
59028;SDS011;45919;51.420;5.454;2022-07-12T03:59:45;16.67;;;13.23;;
59028;SDS011;45919;51.420;5.454;2022-07-12T04:00:47;17.00;;;13.43;;
59028;SDS011;45919;51.420;5.454;2022-07-12T04:01:49;18.02;;;12.93;;
59028;SDS011;45919;51.420;5.454;2022-07-12T04:02:50;18.63;;;14.35;;
59028;SDS011;45919;51.420;5.454;2022-07-12T04:03:55;15.95;;;13.23;;
59028;SDS011;45919;51.420;5.454;2022-07-12T04:04:57;16.92;;;13.77;;
59028;SDS011;45919;51.420;5.454;2022-07-12T04:05:59;18.23;;;14.63;;
59028;SDS011;45919;51.420;5.454;2022-07-12T04:07:01;16.88;;;14.82;;
59028;SDS011;45919;51.420;5.454;2022-07-12T04:08:03;17.27;;;14.43;;
59028;SDS011;45919;51.420;5.454;2022-07-12T04:09:05;17.15;;;14.45;;
59028;SDS011;45919;51.420;5.454;2022-07-12T04:10:07;16.95;;;14.02;;
59028;SDS011;45919;51.420;5.454;2022-07-12T04:11:11;17.45;;;14.20;;
59028;SDS011;45919;51.420;5.454;2022-07-12T04:12:12;19.25;;;14.15;;
59028;SDS011;45919;51.420;5.454;2022-07-12T04:13:14;18.05;;;14.32;;
59028;SDS011;45919;51.420;5.454;2022-07-12T04:14:15;15.73;;;14.02;;
59028;SDS011;45919;51.420;5.454;2022-07-12T04:15:17;18.60;;;13.73;;
59028;SDS011;45919;51.420;5.454;2022-07-12T04:16:19;16.90;;;14.10;;
59028;SDS011;45919;51.420;5.454;2022-07-12T04:17:20;17.55;;;14.40;;
59028;SDS011;45919;51.420;5.454;2022-07-12T04:18:22;16.00;;;13.98;;
59028;SDS011;45919;51.420;5.454;2022-07-12T04:19:28;17.85;;;14.45;;
59028;SDS011;45919;51.420;5.454;2022-07-12T04:20:29;18.27;;;15.10;;
59028;SDS011;45919;51.420;5.454;2022-07-12T04:21:31;19.20;;;14.50;;
59028;SDS011;45919;51.420;5.454;2022-07-12T04:22:33;17.80;;;14.95;;
59028;SDS011;45919;51.420;5.454;2022-07-12T04:23:34;17.98;;;14.75;;
59028;SDS011;45919;51.420;5.454;2022-07-12T04:24:36;19.85;;;15.32;;
59028;SDS011;45919;51.420;5.454;2022-07-12T04:25:38;19.20;;;16.13;;
59028;SDS011;45919;51.420;5.454;2022-07-12T04:26:39;18.10;;;15.20;;
59028;SDS011;45919;51.420;5.454;2022-07-12T04:27:41;17.15;;;15.15;;
59028;SDS011;45919;51.420;5.454;2022-07-12T04:28:42;18.85;;;14.98;;
59028;SDS011;45919;51.420;5.454;2022-07-12T04:29:44;18.10;;;15.68;;
59028;SDS011;45919;51.420;5.454;2022-07-12T04:30:46;20.95;;;16.65;;
59028;SDS011;45919;51.420;5.454;2022-07-12T04:31:50;18.90;;;16.25;;
59028;SDS011;45919;51.420;5.454;2022-07-12T04:32:51;18.95;;;16.77;;
59028;SDS011;45919;51.420;5.454;2022-07-12T04:33:54;20.40;;;17.02;;
59028;SDS011;45919;51.420;5.454;2022-07-12T04:34:55;21.77;;;17.70;;
59028;SDS011;45919;51.420;5.454;2022-07-12T04:35:57;20.83;;;17.10;;
59028;SDS011;45919;51.420;5.454;2022-07-12T04:36:58;21.08;;;17.88;;
59028;SDS011;45919;51.420;5.454;2022-07-12T04:38:00;20.10;;;16.77;;
59028;SDS011;45919;51.420;5.454;2022-07-12T04:39:02;19.95;;;16.90;;
59028;SDS011;45919;51.420;5.454;2022-07-12T04:40:04;21.23;;;17.33;;
59028;SDS011;45919;51.420;5.454;2022-07-12T04:41:06;20.92;;;17.60;;
59028;SDS011;45919;51.420;5.454;2022-07-12T04:42:08;21.20;;;17.50;;
59028;SDS011;45919;51.420;5.454;2022-07-12T04:43:10;21.30;;;18.20;;
59028;SDS011;45919;51.420;5.454;2022-07-12T04:44:11;20.20;;;17.92;;
59028;SDS011;45919;51.420;5.454;2022-07-12T04:45:13;20.77;;;17.60;;
59028;SDS011;45919;51.420;5.454;2022-07-12T04:46:14;23.40;;;18.83;;
59028;SDS011;45919;51.420;5.454;2022-07-12T04:47:16;20.63;;;18.10;;
59028;SDS011;45919;51.420;5.454;2022-07-12T04:48:19;21.85;;;18.77;;
59028;SDS011;45919;51.420;5.454;2022-07-12T04:49:21;22.98;;;19.30;;
59028;SDS011;45919;51.420;5.454;2022-07-12T04:50:22;21.73;;;18.35;;
59028;SDS011;45919;51.420;5.454;2022-07-12T04:51:24;20.98;;;18.00;;
59028;SDS011;45919;51.420;5.454;2022-07-12T04:52:25;21.58;;;18.85;;
59028;SDS011;45919;51.420;5.454;2022-07-12T04:53:27;22.50;;;19.05;;
59028;SDS011;45919;51.420;5.454;2022-07-12T04:54:29;20.55;;;18.27;;
59028;SDS011;45919;51.420;5.454;2022-07-12T04:55:31;23.63;;;20.08;;
59028;SDS011;45919;51.420;5.454;2022-07-12T04:56:32;24.40;;;19.55;;
59028;SDS011;45919;51.420;5.454;2022-07-12T04:57:34;23.75;;;19.77;;
59028;SDS011;45919;51.420;5.454;2022-07-12T04:58:36;24.83;;;19.70;;
59028;SDS011;45919;51.420;5.454;2022-07-12T04:59:38;23.13;;;19.77;;
59028;SDS011;45919;51.420;5.454;2022-07-12T05:00:39;25.02;;;20.30;;
59028;SDS011;45919;51.420;5.454;2022-07-12T05:01:41;21.58;;;19.30;;
59028;SDS011;45919;51.420;5.454;2022-07-12T05:02:43;26.88;;;20.52;;
59028;SDS011;45919;51.420;5.454;2022-07-12T05:03:44;25.33;;;19.80;;
59028;SDS011;45919;51.420;5.454;2022-07-12T05:04:46;25.30;;;20.58;;
59028;SDS011;45919;51.420;5.454;2022-07-12T05:05:47;26.08;;;21.05;;
59028;SDS011;45919;51.420;5.454;2022-07-12T05:06:49;24.88;;;20.70;;
59028;SDS011;45919;51.420;5.454;2022-07-12T05:07:51;25.98;;;20.83;;
59028;SDS011;45919;51.420;5.454;2022-07-12T05:08:52;26.10;;;21.67;;
59028;SDS011;45919;51.420;5.454;2022-07-12T05:09:54;26.02;;;21.88;;
59028;SDS011;45919;51.420;5.454;2022-07-12T05:10:56;29.63;;;22.92;;
59028;SDS011;45919;51.420;5.454;2022-07-12T05:11:57;25.60;;;21.73;;
59028;SDS011;45919;51.420;5.454;2022-07-12T05:12:59;26.65;;;22.00;;
59028;SDS011;45919;51.420;5.454;2022-07-12T05:14:01;25.92;;;20.98;;
59028;SDS011;45919;51.420;5.454;2022-07-12T05:15:05;26.77;;;22.35;;
59028;SDS011;45919;51.420;5.454;2022-07-12T05:16:08;25.55;;;21.38;;
59028;SDS011;45919;51.420;5.454;2022-07-12T05:17:10;24.70;;;21.15;;
59028;SDS011;45919;51.420;5.454;2022-07-12T05:18:12;23.98;;;21.27;;
59028;SDS011;45919;51.420;5.454;2022-07-12T05:19:14;28.17;;;21.92;;
59028;SDS011;45919;51.420;5.454;2022-07-12T05:20:17;26.73;;;21.52;;
59028;SDS011;45919;51.420;5.454;2022-07-12T05:21:18;28.42;;;22.58;;
59028;SDS011;45919;51.420;5.454;2022-07-12T05:22:20;27.02;;;21.70;;
59028;SDS011;45919;51.420;5.454;2022-07-12T05:23:22;27.95;;;21.88;;
59028;SDS011;45919;51.420;5.454;2022-07-12T05:24:23;26.88;;;22.00;;
59028;SDS011;45919;51.420;5.454;2022-07-12T05:25:25;28.95;;;22.85;;
59028;SDS011;45919;51.420;5.454;2022-07-12T05:26:26;27.10;;;22.75;;
59028;SDS011;45919;51.420;5.454;2022-07-12T05:27:29;26.63;;;22.08;;
59028;SDS011;45919;51.420;5.454;2022-07-12T05:28:31;30.02;;;23.17;;
59028;SDS011;45919;51.420;5.454;2022-07-12T05:29:33;28.05;;;23.33;;
59028;SDS011;45919;51.420;5.454;2022-07-12T05:30:35;27.30;;;22.65;;
59028;SDS011;45919;51.420;5.454;2022-07-12T05:31:36;27.20;;;22.45;;
59028;SDS011;45919;51.420;5.454;2022-07-12T05:32:38;28.83;;;22.27;;
59028;SDS011;45919;51.420;5.454;2022-07-12T05:33:40;28.67;;;23.77;;
59028;SDS011;45919;51.420;5.454;2022-07-12T05:34:42;26.65;;;22.42;;
59028;SDS011;45919;51.420;5.454;2022-07-12T05:35:43;30.45;;;24.02;;
59028;SDS011;45919;51.420;5.454;2022-07-12T05:36:45;30.17;;;23.40;;
59028;SDS011;45919;51.420;5.454;2022-07-12T05:37:46;30.90;;;24.27;;
59028;SDS011;45919;51.420;5.454;2022-07-12T05:38:48;29.98;;;23.52;;
59028;SDS011;45919;51.420;5.454;2022-07-12T05:39:50;31.13;;;24.55;;
59028;SDS011;45919;51.420;5.454;2022-07-12T05:40:52;29.95;;;24.27;;
59028;SDS011;45919;51.420;5.454;2022-07-12T05:41:53;28.77;;;24.02;;
59028;SDS011;45919;51.420;5.454;2022-07-12T05:42:55;33.03;;;24.58;;
59028;SDS011;45919;51.420;5.454;2022-07-12T05:43:56;31.77;;;25.02;;
59028;SDS011;45919;51.420;5.454;2022-07-12T05:44:58;29.83;;;24.67;;
59028;SDS011;45919;51.420;5.454;2022-07-12T05:46:00;32.33;;;25.55;;
59028;SDS011;45919;51.420;5.454;2022-07-12T05:47:02;28.45;;;23.30;;
59028;SDS011;45919;51.420;5.454;2022-07-12T05:48:04;31.52;;;25.70;;
59028;SDS011;45919;51.420;5.454;2022-07-12T05:49:06;29.55;;;24.65;;
59028;SDS011;45919;51.420;5.454;2022-07-12T05:50:08;28.10;;;23.95;;
59028;SDS011;45919;51.420;5.454;2022-07-12T05:51:10;30.77;;;23.92;;
59028;SDS011;45919;51.420;5.454;2022-07-12T05:52:30;33.40;;;24.83;;
59028;SDS011;45919;51.420;5.454;2022-07-12T05:53:50;28.77;;;23.80;;
59028;SDS011;45919;51.420;5.454;2022-07-12T05:54:52;30.83;;;24.83;;
59028;SDS011;45919;51.420;5.454;2022-07-12T05:55:54;31.77;;;24.38;;
59028;SDS011;45919;51.420;5.454;2022-07-12T05:56:55;30.85;;;25.00;;
59028;SDS011;45919;51.420;5.454;2022-07-12T05:57:57;30.73;;;24.27;;
59028;SDS011;45919;51.420;5.454;2022-07-12T05:58:59;27.95;;;23.38;;
59028;SDS011;45919;51.420;5.454;2022-07-12T06:00:01;32.00;;;23.88;;
59028;SDS011;45919;51.420;5.454;2022-07-12T06:01:03;30.00;;;23.27;;
59028;SDS011;45919;51.420;5.454;2022-07-12T06:02:04;30.05;;;24.50;;
59028;SDS011;45919;51.420;5.454;2022-07-12T06:03:06;29.95;;;23.20;;
59028;SDS011;45919;51.420;5.454;2022-07-12T06:04:08;29.20;;;23.73;;
59028;SDS011;45919;51.420;5.454;2022-07-12T06:05:09;31.23;;;24.35;;
59028;SDS011;45919;51.420;5.454;2022-07-12T06:06:11;27.38;;;22.45;;
59028;SDS011;45919;51.420;5.454;2022-07-12T06:07:12;30.38;;;24.05;;